createdAt,value
2022-08-03T00:00:45.062Z,49.78
2022-08-03T00:03:16.985Z,49.91
2022-08-03T00:06:04.196Z,49.78
2022-08-03T00:08:34.440Z,49.67
2022-08-03T00:11:09.700Z,50.06
2022-08-03T00:13:39.477Z,49.90
2022-08-03T00:16:08.986Z,50.00
2022-08-03T00:18:40.845Z,50.19
2022-08-03T00:21:10.250Z,50.62
2022-08-03T00:23:50.827Z,51.09
2022-08-03T00:26:21.417Z,50.95
2022-08-03T00:28:51.159Z,50.91
2022-08-03T00:31:26.470Z,50.65
2022-08-03T00:34:12.468Z,50.78
2022-08-03T00:36:41.969Z,51.34
2022-08-03T00:39:11.605Z,51.56
2022-08-03T00:41:41.032Z,50.94
2022-08-03T00:44:10.401Z,51.18
2022-08-03T00:46:39.776Z,51.08
2022-08-03T00:49:09.169Z,51.88
2022-08-03T00:51:41.403Z,52.14
2022-08-03T00:54:10.710Z,51.91
2022-08-03T00:56:40.392Z,52.00
2022-08-03T00:59:29.554Z,51.89
2022-08-03T01:01:59.680Z,51.58
2022-08-03T01:04:29.105Z,51.71
2022-08-03T01:07:10.953Z,51.99
2022-08-03T01:09:43.659Z,52.05
2022-08-03T01:12:17.622Z,52.65
2022-08-03T01:14:48.910Z,52.68
2022-08-03T01:17:22.516Z,52.96
2022-08-03T01:19:56.733Z,52.92
2022-08-03T01:22:41.395Z,52.88
2022-08-03T01:25:16.862Z,52.87
2022-08-03T01:27:54.232Z,52.79
2022-08-03T01:30:27.423Z,53.06
2022-08-03T01:33:01.889Z,53.05
2022-08-03T01:35:36.708Z,52.88
2022-08-03T01:38:09.656Z,53.47
2022-08-03T01:40:40.390Z,53.59
2022-08-03T01:43:11.249Z,53.54
2022-08-03T01:45:43.790Z,53.65
2022-08-03T01:48:14.696Z,53.64
2022-08-03T01:50:45.098Z,53.02
2022-08-03T01:53:16.488Z,53.49
2022-08-03T01:55:46.649Z,53.48
2022-08-03T01:58:17.792Z,53.49
2022-08-03T02:00:51.857Z,53.84
2022-08-03T02:03:23.262Z,54.19
2022-08-03T02:06:06.102Z,54.22
2022-08-03T02:08:43.360Z,54.09
2022-08-03T02:11:12.764Z,53.72
2022-08-03T02:13:42.279Z,53.85
2022-08-03T02:16:15.167Z,53.72
2022-08-03T02:18:44.969Z,53.73
2022-08-03T02:21:55.862Z,53.17
2022-08-03T02:24:09.470Z,54.28
2022-08-03T02:26:40.462Z,54.75
2022-08-03T02:29:14.026Z,54.57
2022-08-03T02:31:46.479Z,54.48
2022-08-03T02:34:17.361Z,54.88
2022-08-03T02:36:52.214Z,54.60
2022-08-03T02:39:23.496Z,54.36
2022-08-03T02:41:55.293Z,54.92
2022-08-03T02:44:27.518Z,54.58
2022-08-03T02:47:10.819Z,55.18
2022-08-03T02:49:51.252Z,55.24
2022-08-03T02:52:22.119Z,55.55
2022-08-03T02:54:53.801Z,55.46
2022-08-03T02:57:24.450Z,55.83
2022-08-03T02:59:54.551Z,56.10
2022-08-03T03:02:27.296Z,55.93
2022-08-03T03:05:54.568Z,56.42
2022-08-03T03:07:52.248Z,56.39
2022-08-03T03:10:23.481Z,56.15
2022-08-03T03:12:54.004Z,56.44
2022-08-03T03:15:23.414Z,56.03
2022-08-03T03:17:55.615Z,56.38
2022-08-03T03:20:28.943Z,56.18
2022-08-03T03:23:01.186Z,56.75
2022-08-03T03:25:31.570Z,56.67
2022-08-03T03:28:01.061Z,56.88
2022-08-03T03:30:31.934Z,56.79
2022-08-03T03:33:03.894Z,57.32
2022-08-03T03:35:38.761Z,57.32
2022-08-03T03:38:09.152Z,57.66
2022-08-03T03:40:38.593Z,57.38
2022-08-03T03:43:10.333Z,57.34
2022-08-03T03:45:39.989Z,57.54
2022-08-03T03:48:12.361Z,57.66
2022-08-03T03:50:42.025Z,57.95
2022-08-03T03:53:12.092Z,57.99
2022-08-03T03:55:59.603Z,57.72
2022-08-03T03:58:31.065Z,57.87
2022-08-03T04:03:43.837Z,57.54
2022-08-03T04:06:25.870Z,57.65
2022-08-03T04:09:07.714Z,57.91
2022-08-03T04:11:39.381Z,57.91
2022-08-03T04:14:10.794Z,58.16
2022-08-03T04:16:43.852Z,58.29
2022-08-03T04:19:22.934Z,57.90
2022-08-03T04:21:57.209Z,57.95
2022-08-03T04:24:29.778Z,57.58
2022-08-03T04:26:59.999Z,58.21
2022-08-03T04:29:30.013Z,58.39
2022-08-03T04:32:03.060Z,57.95
2022-08-03T04:34:35.368Z,58.22
2022-08-03T04:37:07.191Z,57.65
2022-08-03T04:39:38.022Z,57.64
2022-08-03T04:42:09.500Z,57.50
2022-08-03T04:44:40.656Z,57.79
2022-08-03T04:47:10.103Z,57.83
2022-08-03T04:49:42.608Z,57.66
2022-08-03T04:52:12.566Z,56.95
2022-08-03T04:54:42.393Z,57.47
2022-08-03T04:57:22.310Z,57.06
2022-08-03T05:00:01.436Z,57.42
2022-08-03T05:02:32.829Z,56.58
2022-08-03T05:05:04.705Z,56.67
2022-08-03T05:07:35.946Z,56.68
2022-08-03T05:10:14.682Z,56.22
2022-08-03T05:12:45.221Z,56.58
2022-08-03T05:15:14.774Z,56.10
2022-08-03T05:17:44.152Z,56.00
2022-08-03T05:20:16.556Z,55.69
2022-08-03T05:22:48.327Z,56.33
2022-08-03T05:25:19.305Z,56.00
2022-08-03T05:27:50.208Z,56.21
2022-08-03T05:30:30.502Z,55.96
2022-08-03T05:33:03.128Z,55.21
2022-08-03T05:35:57.424Z,55.16
2022-08-03T05:38:33.166Z,55.47
2022-08-03T05:41:23.397Z,55.12
2022-08-03T05:43:54.751Z,55.16
2022-08-03T05:46:24.913Z,54.91
2022-08-03T05:48:54.673Z,55.27
2022-08-03T05:51:26.637Z,54.79
2022-08-03T05:53:55.980Z,54.59
2022-08-03T05:56:26.563Z,53.88
2022-08-03T05:58:56.215Z,54.06
2022-08-03T06:01:25.649Z,53.64
2022-08-03T06:03:55.139Z,53.70
2022-08-03T06:06:31.876Z,53.59
2022-08-03T06:09:01.668Z,53.80
2022-08-03T06:11:30.974Z,53.67
2022-08-03T06:14:00.303Z,53.45
2022-08-03T06:16:29.777Z,53.30
2022-08-03T06:18:59.133Z,53.67
2022-08-03T06:21:31.231Z,53.27
2022-08-03T06:24:00.631Z,53.46
2022-08-03T06:26:31.900Z,53.29
2022-08-03T06:29:01.240Z,52.81
2022-08-03T06:31:33.841Z,52.31
2022-08-03T06:34:32.503Z,52.22
2022-08-03T06:37:01.519Z,51.81
2022-08-03T06:39:31.784Z,51.47
2022-08-03T06:42:01.102Z,51.46
2022-08-03T06:44:30.464Z,51.28
2022-08-03T06:46:59.769Z,50.99
2022-08-03T06:49:29.121Z,50.13
2022-08-03T06:52:03.080Z,49.89
2022-08-03T06:54:35.983Z,49.47
2022-08-03T06:57:05.492Z,48.93
2022-08-03T07:00:09.094Z,48.53
2022-08-03T07:02:24.255Z,48.42
2022-08-03T07:04:57.673Z,47.79
2022-08-03T07:07:29.681Z,47.76
2022-08-03T07:09:59.060Z,47.71
2022-08-03T07:12:29.335Z,47.13
2022-08-03T07:15:02.289Z,47.07
2022-08-03T07:17:33.318Z,47.13
2022-08-03T07:20:03.592Z,46.42
2022-08-03T07:22:35.547Z,46.40
2022-08-03T07:25:05.173Z,46.19
2022-08-03T07:27:35.049Z,46.28
2022-08-03T07:30:04.631Z,45.65
2022-08-03T07:32:34.135Z,45.38
2022-08-03T07:35:03.618Z,44.45
2022-08-03T07:37:40.927Z,44.04
2022-08-03T07:40:23.471Z,44.01
2022-08-03T07:42:58.415Z,43.58
2022-08-03T07:45:27.726Z,43.19
2022-08-03T07:47:57.034Z,42.98
2022-08-03T07:50:26.434Z,43.18
2022-08-03T07:52:59.898Z,42.63
2022-08-03T07:55:30.372Z,41.71
2022-08-03T07:58:04.023Z,40.96
2022-08-03T08:00:34.080Z,41.16
2022-08-03T08:03:03.479Z,41.05
2022-08-03T08:05:32.827Z,40.49
2022-08-03T08:08:04.882Z,40.58
2022-08-03T08:10:34.329Z,40.46
2022-08-03T08:13:04.746Z,39.72
2022-08-03T08:15:34.386Z,38.69
2022-08-03T08:18:03.995Z,38.31
2022-08-03T08:20:38.085Z,38.24
2022-08-03T08:23:37.673Z,37.98
2022-08-03T08:26:00.682Z,38.03
2022-08-03T08:28:33.447Z,38.00
2022-08-03T08:31:03.391Z,37.79
2022-08-03T08:34:02.727Z,36.52
2022-08-03T08:36:24.153Z,35.59
2022-08-03T08:38:56.164Z,34.65
2022-08-03T08:41:25.495Z,33.90
2022-08-03T08:44:01.696Z,33.42
2022-08-03T08:46:32.456Z,33.81
2022-08-03T08:49:05.089Z,33.29
2022-08-03T08:51:52.690Z,33.76
2022-08-03T08:54:29.811Z,33.42
2022-08-03T08:56:59.928Z,32.71
2022-08-03T08:59:49.620Z,32.72
2022-08-03T09:02:18.940Z,32.70
2022-08-03T09:04:48.914Z,32.58
2022-08-03T09:07:20.290Z,32.82
2022-08-03T09:10:11.085Z,32.83
2022-08-03T09:12:43.227Z,32.13
2022-08-03T09:15:23.985Z,31.76
2022-08-03T09:17:54.066Z,31.25
2022-08-03T09:20:24.142Z,31.25
2022-08-03T09:23:00.474Z,30.77
2022-08-03T09:25:33.475Z,30.63
2022-08-03T09:28:07.597Z,30.51
2022-08-03T09:30:37.367Z,30.27
2022-08-03T09:33:08.344Z,30.43
2022-08-03T09:35:58.802Z,30.53
2022-08-03T09:38:28.764Z,30.69
2022-08-03T09:41:01.108Z,29.82
2022-08-03T09:43:30.631Z,29.25
2022-08-03T09:46:09.662Z,29.40
2022-08-03T09:48:38.960Z,29.72
2022-08-03T09:51:13.239Z,30.14
2022-08-03T09:54:01.791Z,29.25
2022-08-03T09:56:43.350Z,28.74
2022-08-03T09:59:13.089Z,28.58
2022-08-03T10:01:46.308Z,28.83
2022-08-03T10:04:17.154Z,28.13
2022-08-03T10:06:47.073Z,27.98
2022-08-03T10:09:17.168Z,28.71
2022-08-03T10:11:49.797Z,28.29
2022-08-03T10:14:22.761Z,28.37
2022-08-03T10:16:52.571Z,28.68
2022-08-03T16:16:42.461Z,19.75
2022-08-03T16:19:11.746Z,19.94
2022-08-03T16:21:48.179Z,19.91
2022-08-03T16:24:27.951Z,19.78
2022-08-03T16:26:57.700Z,19.53
2022-08-03T16:29:29.898Z,19.83
2022-08-03T16:32:09.304Z,19.95
2022-08-03T16:34:39.728Z,19.76
2022-08-03T16:37:36.585Z,19.78
2022-08-03T16:39:59.161Z,19.55
2022-08-03T16:42:28.584Z,19.29
2022-08-03T16:44:57.971Z,19.84
2022-08-03T16:47:29.884Z,19.23
2022-08-03T16:50:00.503Z,19.55
2022-08-03T16:52:30.185Z,18.93
2022-08-03T16:54:59.462Z,18.88
2022-08-03T16:57:56.719Z,18.93
2022-08-03T17:00:34.149Z,18.81
2022-08-03T17:03:12.807Z,18.51
2022-08-03T17:05:50.300Z,18.84
2022-08-03T17:08:26.651Z,18.65
2022-08-03T17:10:57.105Z,18.15
2022-08-03T17:13:39.456Z,18.24
2022-08-03T17:16:12.164Z,17.90
2022-08-03T17:18:49.665Z,18.14
2022-08-03T17:21:19.733Z,17.87
2022-08-03T17:23:54.693Z,17.71
2022-08-03T17:26:30.317Z,17.56
2022-08-03T17:29:12.609Z,17.69
2022-08-03T17:31:49.918Z,17.44
2022-08-03T17:34:26.616Z,17.68
2022-08-03T17:37:05.171Z,17.49
2022-08-03T17:39:57.586Z,17.53
2022-08-03T17:42:31.003Z,17.56
2022-08-03T17:45:03.768Z,17.66
2022-08-03T17:47:41.935Z,18.10
2022-08-03T17:50:24.649Z,18.02
2022-08-03T17:52:55.386Z,18.58
2022-08-03T17:55:55.732Z,18.57
2022-08-03T17:58:22.731Z,18.13
2022-08-03T18:04:10.993Z,18.47
2022-08-03T18:06:56.133Z,19.26
2022-08-03T18:10:03.528Z,19.33
2022-08-03T18:12:22.453Z,20.12
2022-08-03T18:14:57.521Z,20.85
2022-08-03T18:17:55.538Z,21.29
2022-08-03T18:20:34.299Z,21.65
2022-08-03T18:23:06.824Z,21.67
2022-08-03T18:25:45.239Z,22.26
2022-08-03T18:28:23.285Z,22.22
2022-08-03T18:34:18.420Z,22.81
2022-08-03T18:36:37.597Z,22.77
2022-08-03T18:39:12.325Z,22.75
2022-08-03T18:41:46.356Z,23.09
2022-08-03T18:44:37.415Z,23.33
2022-08-03T18:47:16.175Z,23.54
2022-08-03T18:49:50.623Z,23.92
2022-08-03T18:52:20.723Z,24.03
2022-08-03T18:55:09.490Z,24.36
2022-08-03T18:57:53.194Z,24.08
2022-08-03T19:00:24.975Z,24.60
2022-08-03T19:03:20.235Z,24.78
2022-08-03T19:06:05.913Z,25.23
2022-08-03T19:08:39.875Z,25.56
2022-08-03T19:12:13.274Z,25.65
2022-08-03T19:14:29.737Z,26.12
2022-08-03T19:17:06.919Z,26.95
2022-08-03T19:19:44.002Z,26.67
2022-08-03T19:22:15.913Z,26.57
2022-08-03T19:24:49.075Z,26.44
2022-08-03T19:27:26.803Z,26.79
2022-08-03T19:30:02.102Z,26.86
2022-08-03T19:32:34.748Z,26.94
2022-08-03T19:35:12.418Z,27.05
2022-08-03T19:37:43.361Z,27.04
2022-08-03T19:40:13.224Z,27.66
2022-08-03T19:42:47.264Z,27.68
2022-08-03T19:45:19.917Z,27.75
2022-08-03T19:47:54.408Z,28.29
2022-08-03T19:50:24.101Z,28.60
2022-08-03T19:52:55.369Z,28.65
2022-08-03T19:55:25.186Z,28.89
2022-08-03T19:57:58.484Z,29.14
2022-08-03T20:00:30.269Z,29.81
2022-08-03T20:03:03.645Z,29.85
2022-08-03T20:05:45.039Z,29.83
2022-08-03T20:08:22.895Z,30.14
2022-08-03T20:10:52.424Z,30.49
2022-08-03T20:13:28.376Z,30.59
2022-08-03T20:15:57.777Z,31.42
2022-08-03T20:18:27.084Z,31.46
2022-08-03T20:20:57.061Z,31.27
2022-08-03T20:23:27.684Z,31.55
2022-08-03T20:26:06.897Z,31.53
2022-08-03T20:28:50.136Z,32.14
2022-08-03T20:31:25.213Z,32.17
2022-08-03T20:34:04.435Z,32.70
2022-08-03T20:36:33.731Z,32.66
2022-08-03T20:39:07.908Z,32.71
2022-08-03T20:41:39.814Z,33.30
2022-08-03T20:44:11.877Z,32.95
2022-08-03T20:46:50.184Z,32.79
2022-08-03T20:49:25.766Z,32.79
2022-08-03T20:51:56.007Z,32.77
2022-08-03T20:54:29.313Z,32.82
2022-08-03T20:57:03.747Z,33.09
2022-08-03T20:59:47.588Z,33.18
2022-08-03T21:02:29.797Z,33.80
2022-08-03T21:05:03.288Z,34.20
2022-08-03T21:07:45.950Z,34.38
2022-08-03T21:10:30.145Z,34.56
2022-08-03T21:13:04.654Z,18.74
2022-08-03T21:13:04.655Z,22.42
2022-08-03T21:16:02.466Z,34.60
2022-08-03T21:18:45.812Z,34.22
2022-08-03T21:21:16.848Z,34.29
2022-08-03T21:23:48.583Z,34.50
2022-08-03T21:26:19.474Z,34.56
2022-08-03T21:28:49.456Z,35.24
2022-08-03T21:31:25.256Z,35.61
2022-08-03T21:33:56.204Z,35.58
2022-08-03T21:36:28.993Z,35.25
2022-08-03T21:38:59.327Z,35.29
2022-08-03T21:41:29.419Z,34.96
2022-08-03T21:43:58.818Z,35.16
2022-08-03T21:46:33.216Z,35.79
2022-08-03T21:50:04.515Z,36.64
2022-08-03T21:51:54.956Z,36.25
2022-08-03T21:54:25.840Z,36.86
2022-08-03T21:56:57.479Z,36.74
2022-08-03T21:59:27.238Z,36.97
2022-08-03T22:01:59.329Z,37.61
2022-08-03T22:04:38.807Z,38.08
2022-08-03T22:07:19.474Z,38.08
2022-08-03T22:09:51.619Z,37.82
2022-08-03T22:12:23.545Z,37.80
2022-08-03T22:15:00.762Z,38.21
2022-08-03T22:17:55.462Z,38.27
2022-08-03T22:20:23.962Z,38.48
2022-08-03T22:22:57.049Z,38.33
2022-08-03T22:25:29.327Z,38.54
2022-08-03T22:27:59.880Z,38.42
2022-08-03T22:30:29.652Z,38.64
2022-08-03T22:33:02.250Z,38.38
2022-08-03T22:35:44.354Z,38.64
2022-08-03T22:38:17.766Z,38.25
2022-08-03T22:40:47.747Z,38.85
2022-08-03T22:43:17.076Z,38.71
2022-08-03T22:46:08.836Z,39.11
2022-08-03T22:48:41.226Z,38.91
2022-08-03T22:51:11.036Z,38.83
2022-08-03T22:53:41.219Z,39.23
2022-08-03T22:56:10.900Z,38.82
2022-08-03T22:58:40.302Z,39.21
2022-08-03T23:01:10.849Z,39.04
2022-08-03T23:04:01.010Z,39.48
2022-08-03T23:06:35.170Z,39.32
2022-08-03T23:09:05.221Z,39.78
2022-08-03T23:11:37.938Z,39.74
2022-08-03T23:14:14.096Z,40.24
2022-08-03T23:16:44.853Z,40.36
2022-08-03T23:19:25.374Z,40.40
2022-08-03T23:22:03.221Z,40.60
2022-08-03T23:24:33.321Z,41.19
2022-08-03T23:27:04.950Z,41.00
2022-08-03T23:29:36.450Z,41.39
2022-08-03T23:32:06.609Z,41.43
2022-08-03T23:34:53.629Z,41.36
2022-08-03T23:37:23.160Z,41.72
2022-08-03T23:39:52.638Z,41.46
2022-08-03T23:42:22.668Z,41.50
2022-08-03T23:44:55.008Z,41.87
2022-08-03T23:47:24.700Z,41.71
2022-08-03T23:50:16.957Z,41.87
2022-08-03T23:52:53.106Z,42.19
2022-08-03T23:55:28.933Z,42.29
2022-08-03T23:58:04.072Z,42.44
